createdAt,value
2022-11-25T00:00:47.848Z,9.719175
2022-11-25T00:01:47.949Z,9.719182
2022-11-25T00:02:48.037Z,9.719217
2022-11-25T00:03:47.825Z,9.719210
2022-11-25T00:04:47.822Z,9.719202
2022-11-25T00:05:47.804Z,9.719221
2022-11-25T00:06:47.823Z,9.719228
2022-11-25T00:07:47.845Z,9.719170
2022-11-25T00:08:47.771Z,9.719224
2022-11-25T00:09:47.769Z,9.719209
2022-11-25T00:10:47.756Z,9.719209
2022-11-25T00:11:47.749Z,9.719209
2022-11-25T00:12:47.751Z,9.719230
2022-11-25T00:13:47.729Z,9.719308
2022-11-25T00:14:47.718Z,9.719246
2022-11-25T00:15:47.707Z,9.719248
2022-11-25T00:16:48.880Z,9.719242
2022-11-25T00:17:48.714Z,9.719280
2022-11-25T00:18:47.678Z,9.719282
2022-11-25T00:19:47.660Z,9.719288
2022-11-25T00:20:47.663Z,9.719309
2022-11-25T00:21:47.653Z,9.719303
2022-11-25T00:22:47.658Z,9.719296
2022-11-25T00:23:47.628Z,9.719262
2022-11-25T00:24:47.639Z,9.719296
2022-11-25T00:25:47.606Z,9.719204
2022-11-25T00:26:47.597Z,9.719307
2022-11-25T00:27:47.578Z,9.719253
2022-11-25T00:28:47.604Z,9.719163
2022-11-25T00:29:47.574Z,9.719202
2022-11-25T00:30:47.560Z,9.719231
2022-11-25T00:31:47.625Z,9.719251
2022-11-25T00:32:47.562Z,9.719249
2022-11-25T00:33:47.550Z,9.719276
2022-11-25T00:34:47.542Z,9.719250
2022-11-25T00:35:47.519Z,9.719205
2022-11-25T00:36:47.503Z,9.719275
2022-11-25T00:37:47.515Z,9.719333
2022-11-25T00:38:47.489Z,9.719224
2022-11-25T00:39:47.495Z,9.719211
2022-11-25T00:40:47.478Z,9.719223
2022-11-25T00:41:47.464Z,9.719229
2022-11-25T00:42:47.450Z,9.719180
2022-11-25T00:43:47.433Z,9.719283
2022-11-25T00:44:47.429Z,9.719208
2022-11-25T00:45:47.469Z,9.719194
2022-11-25T00:46:47.410Z,9.719201
2022-11-25T00:47:47.404Z,9.719081
2022-11-25T00:48:47.409Z,9.719071
2022-11-25T00:49:47.397Z,9.719110
2022-11-25T00:50:47.371Z,9.719226
2022-11-25T00:51:47.356Z,9.719209
2022-11-25T00:52:47.343Z,9.719120
2022-11-25T00:53:47.346Z,9.719109
2022-11-25T00:54:47.362Z,9.719173
2022-11-25T00:55:47.317Z,9.719021
2022-11-25T00:56:47.303Z,9.719091
2022-11-25T00:57:47.299Z,9.719212
2022-11-25T00:58:47.284Z,9.719179
2022-11-25T00:59:47.274Z,9.719158
2022-11-25T01:00:47.278Z,9.719133
2022-11-25T01:01:47.328Z,9.719125
2022-11-25T01:02:47.292Z,9.719090
2022-11-25T01:03:47.245Z,9.719189
2022-11-25T01:04:47.237Z,9.719262
2022-11-25T01:05:47.210Z,9.719231
2022-11-25T01:06:48.230Z,9.719062
2022-11-25T01:07:47.293Z,9.719009
2022-11-25T01:08:47.190Z,9.718976
2022-11-25T01:09:47.179Z,9.719127
2022-11-25T01:10:47.178Z,9.719115
2022-11-25T01:11:47.161Z,9.719142
2022-11-25T01:12:47.167Z,9.719137
2022-11-25T01:13:47.177Z,9.719185
2022-11-25T01:14:47.141Z,9.719182
2022-11-25T01:15:47.119Z,9.719192
2022-11-25T01:16:47.200Z,9.719212
2022-11-25T01:17:47.106Z,9.719183
2022-11-25T01:18:47.113Z,9.719244
2022-11-25T01:19:47.095Z,9.719191
2022-11-25T01:20:47.076Z,9.719206
2022-11-25T01:21:47.059Z,9.719211
2022-11-25T01:22:47.075Z,9.719210
2022-11-25T01:23:47.034Z,9.719202
2022-11-25T01:24:47.034Z,9.719149
2022-11-25T01:25:47.021Z,9.719169
2022-11-25T01:26:47.014Z,9.719199
2022-11-25T01:27:47.025Z,9.719294
2022-11-25T01:28:46.995Z,9.719215
2022-11-25T01:29:46.983Z,9.719152
2022-11-25T01:30:46.984Z,9.719201
2022-11-25T01:31:47.033Z,9.719351
2022-11-25T01:32:46.957Z,9.719455
2022-11-25T01:33:46.961Z,9.719363
2022-11-25T01:34:46.958Z,9.719399
2022-11-25T01:35:46.921Z,9.719226
2022-11-25T01:36:46.915Z,9.719273
2022-11-25T01:37:46.919Z,9.719320
2022-11-25T01:38:46.902Z,9.719362
2022-11-25T01:39:46.918Z,9.719522
2022-11-25T01:40:46.882Z,9.719534
2022-11-25T01:41:46.878Z,9.719088
2022-11-25T01:42:46.870Z,9.718938
2022-11-25T01:43:46.857Z,9.718831
2022-11-25T01:44:46.851Z,9.718974
2022-11-25T01:45:46.923Z,9.719119
2022-11-25T01:46:46.840Z,9.719177
2022-11-25T01:47:46.811Z,9.719185
2022-11-25T01:48:46.803Z,9.719213
2022-11-25T01:49:46.797Z,9.719048
2022-11-25T01:50:46.797Z,9.719163
2022-11-25T01:51:46.801Z,9.719191
2022-11-25T01:52:46.769Z,9.719225
2022-11-25T01:53:46.760Z,9.719140
2022-11-25T01:54:46.773Z,9.719165
2022-11-25T01:55:46.748Z,9.719060
2022-11-25T01:56:46.728Z,9.719233
2022-11-25T01:57:46.726Z,9.719200
2022-11-25T01:58:46.722Z,9.719128
2022-11-25T01:59:46.722Z,9.719195
2022-11-25T02:00:46.749Z,9.719144
2022-11-25T02:01:46.691Z,9.718972
2022-11-25T02:02:46.824Z,9.718981
2022-11-25T02:03:46.691Z,9.719200
2022-11-25T02:04:46.667Z,9.719188
2022-11-25T02:05:46.646Z,9.719111
2022-11-25T02:06:46.638Z,9.719193
2022-11-25T02:07:46.709Z,9.719166
2022-11-25T02:08:47.631Z,9.719234
2022-11-25T02:09:46.607Z,9.719323
2022-11-25T02:10:46.598Z,9.719161
2022-11-25T02:11:46.602Z,9.719312
2022-11-25T02:12:46.609Z,9.719153
2022-11-25T02:13:46.573Z,9.719040
2022-11-25T02:14:46.570Z,9.719411
2022-11-25T02:15:46.555Z,9.719408
2022-11-25T02:16:46.620Z,9.719239
2022-11-25T02:17:46.555Z,9.719187
2022-11-25T02:18:46.522Z,9.719312
2022-11-25T02:19:46.530Z,9.719166
2022-11-25T02:20:46.513Z,9.719201
2022-11-25T02:21:46.492Z,9.719174
2022-11-25T02:22:46.539Z,9.719119
2022-11-25T02:23:46.510Z,9.719143
2022-11-25T02:24:46.468Z,9.719083
2022-11-25T02:25:46.473Z,9.719201
2022-11-25T02:26:46.445Z,9.719057
2022-11-25T02:27:46.442Z,9.718850
2022-11-25T02:28:46.423Z,9.718950
2022-11-25T02:29:46.423Z,9.719175
2022-11-25T02:30:46.425Z,9.718902
2022-11-25T02:31:46.487Z,9.718936
2022-11-25T02:32:46.384Z,9.719141
2022-11-25T02:33:46.408Z,9.719215
2022-11-25T02:34:46.373Z,9.719245
2022-11-25T02:35:46.352Z,9.719261
2022-11-25T02:36:46.353Z,9.719204
2022-11-25T02:37:46.336Z,9.719216
2022-11-25T02:38:46.345Z,9.719234
2022-11-25T02:39:46.331Z,9.719304
2022-11-25T02:40:46.331Z,9.719103
2022-11-25T02:41:46.313Z,9.719122
2022-11-25T02:42:46.318Z,9.718905
2022-11-25T02:43:46.292Z,9.718968
2022-11-25T02:44:46.271Z,9.719006
2022-11-25T02:45:46.409Z,9.719090
2022-11-25T02:46:46.266Z,9.719110
2022-11-25T02:47:46.243Z,9.718940
2022-11-25T02:49:08.063Z,9.719027
2022-11-25T02:49:48.246Z,9.719226
2022-11-25T02:50:46.249Z,9.719232
2022-11-25T02:51:46.229Z,9.718978
2022-11-25T02:52:46.203Z,9.719009
2022-11-25T02:53:46.209Z,9.719361
2022-11-25T02:54:46.200Z,9.719205
2022-11-25T02:55:46.175Z,9.718942
2022-11-25T02:56:46.180Z,9.718902
2022-11-25T02:57:46.146Z,9.718914
2022-11-25T02:58:46.159Z,9.718984
2022-11-25T02:59:46.142Z,9.719169
2022-11-25T03:00:46.185Z,9.719102
2022-11-25T03:01:46.182Z,9.719060
2022-11-25T03:02:46.113Z,9.718994
2022-11-25T03:03:46.111Z,9.718840
2022-11-25T03:04:46.089Z,9.718984
2022-11-25T03:05:46.074Z,9.719023
2022-11-25T03:06:46.111Z,9.719076
2022-11-25T03:07:46.182Z,9.719049
2022-11-25T03:08:46.073Z,9.719055
2022-11-25T03:09:46.036Z,9.719016
2022-11-25T03:10:46.027Z,9.719029
2022-11-25T03:11:45.999Z,9.719049
2022-11-25T03:13:17.980Z,9.719024
2022-11-25T03:13:46.084Z,9.719007
2022-11-25T03:14:46.056Z,9.719045
2022-11-25T03:15:46.030Z,9.719115
2022-11-25T03:16:46.156Z,9.719195
2022-11-25T03:17:46.052Z,9.719240
2022-11-25T03:18:46.020Z,9.719157
2022-11-25T03:19:45.973Z,9.719204
2022-11-25T03:20:45.986Z,9.719123
2022-11-25T03:21:45.985Z,9.719160
2022-11-25T03:22:45.988Z,9.719176
2022-11-25T03:23:46.024Z,9.719140
2022-11-25T03:24:45.978Z,9.719114
2022-11-25T03:25:46.002Z,9.719102
2022-11-25T03:26:45.994Z,9.719049
2022-11-25T03:27:45.931Z,9.719130
2022-11-25T03:28:45.967Z,9.719037
2022-11-25T03:29:45.909Z,9.719102
2022-11-25T03:30:45.923Z,9.719110
2022-11-25T03:31:45.980Z,9.719161
2022-11-25T03:32:45.932Z,9.719206
2022-11-25T03:33:45.875Z,9.719239
2022-11-25T03:34:45.852Z,9.719318
2022-11-25T03:35:45.949Z,9.719228
2022-11-25T03:36:45.905Z,9.719116
2022-11-25T03:37:45.844Z,9.719057
2022-11-25T03:38:45.839Z,9.719058
2022-11-25T03:39:45.831Z,9.719137
2022-11-25T03:40:46.787Z,9.719161
2022-11-25T03:41:45.780Z,9.719014
2022-11-25T03:42:45.841Z,9.719127
2022-11-25T03:43:45.794Z,9.719084
2022-11-25T03:44:45.785Z,9.719007
2022-11-25T03:45:45.790Z,9.718926
2022-11-25T03:46:45.726Z,9.719072
2022-11-25T03:47:45.740Z,9.719090
2022-11-25T03:48:45.707Z,9.719035
2022-11-25T03:49:45.719Z,9.718678
2022-11-25T03:50:45.733Z,9.718732
2022-11-25T03:51:45.687Z,9.718849
2022-11-25T03:52:45.753Z,9.718894
2022-11-25T03:53:45.778Z,9.718582
2022-11-25T03:54:45.641Z,9.718277
2022-11-25T03:55:45.657Z,9.718979
2022-11-25T03:56:45.642Z,9.719142
2022-11-25T03:57:45.681Z,9.718881
2022-11-25T03:58:45.626Z,9.718904
2022-11-25T03:59:45.619Z,9.719222
2022-11-25T04:00:45.626Z,9.719010
2022-11-25T04:01:45.624Z,9.718873
2022-11-25T04:02:45.674Z,9.719188
2022-11-25T04:03:45.578Z,9.719284
2022-11-25T04:04:45.583Z,9.719024
2022-11-25T04:05:45.578Z,9.719213
2022-11-25T04:06:45.548Z,9.719254
2022-11-25T04:07:45.620Z,9.718960
2022-11-25T04:08:45.568Z,9.718953
2022-11-25T04:09:45.504Z,9.718909
2022-11-25T04:10:45.549Z,9.719086
2022-11-25T04:11:45.461Z,9.719221
2022-11-25T04:12:45.530Z,9.719393
2022-11-25T04:13:46.503Z,9.719270
2022-11-25T04:14:45.486Z,9.719236
2022-11-25T04:15:45.525Z,9.718804
2022-11-25T04:16:45.529Z,9.718875
2022-11-25T04:17:45.432Z,9.719204
2022-11-25T04:18:45.458Z,9.719580
2022-11-25T04:19:45.460Z,9.719232
2022-11-25T04:20:45.411Z,9.719000
2022-11-25T04:21:49.384Z,9.718930
2022-11-25T04:22:47.417Z,9.718879
2022-11-25T04:23:45.449Z,9.719004
2022-11-25T04:24:45.389Z,9.718958
2022-11-25T04:25:45.338Z,9.718941
2022-11-25T04:26:45.383Z,9.719177
2022-11-25T04:27:45.350Z,9.719208
2022-11-25T04:28:45.338Z,9.719194
2022-11-25T04:29:45.350Z,9.719187
2022-11-25T04:30:45.349Z,9.719293
2022-11-25T04:31:45.311Z,9.719245
2022-11-25T04:32:45.325Z,9.719165
2022-11-25T04:33:51.088Z,9.719263
2022-11-25T04:34:47.294Z,9.719187
2022-11-25T04:35:45.317Z,9.719204
2022-11-25T04:36:45.312Z,9.719200
2022-11-25T04:37:45.266Z,9.719331
2022-11-25T04:38:45.259Z,9.719277
2022-11-25T04:39:45.278Z,9.719189
2022-11-25T04:40:45.220Z,9.719273
2022-11-25T04:41:45.250Z,9.719271
2022-11-25T04:42:45.246Z,9.719312
2022-11-25T04:43:45.188Z,9.719265
2022-11-25T04:45:01.136Z,9.719218
2022-11-25T04:46:12.619Z,9.719221
2022-11-25T04:46:47.206Z,9.719289
2022-11-25T04:47:45.148Z,9.719073
2022-11-25T04:48:45.150Z,9.719053
2022-11-25T04:49:45.139Z,9.719102
2022-11-25T04:50:45.179Z,9.719236
2022-11-25T04:51:45.111Z,9.719093
2022-11-25T04:52:45.147Z,9.719217
2022-11-25T04:53:45.106Z,9.719160
2022-11-25T04:54:45.076Z,9.718946
2022-11-25T04:55:45.044Z,9.718978
2022-11-25T04:56:45.042Z,9.719033
2022-11-25T04:57:45.028Z,9.719114
2022-11-25T04:58:45.080Z,9.719231
2022-11-25T04:59:45.003Z,9.719059
2022-11-25T05:00:45.033Z,9.719063
2022-11-25T05:01:45.077Z,9.718998
2022-11-25T05:02:45.076Z,9.719038
2022-11-25T05:03:48.927Z,9.719108
2022-11-25T05:04:46.983Z,9.719064
2022-11-25T05:05:45.001Z,9.719176
2022-11-25T05:06:44.970Z,9.719178
2022-11-25T05:07:46.017Z,9.719110
2022-11-25T05:08:44.961Z,9.719157
2022-11-25T05:09:44.923Z,9.719104
2022-11-25T05:10:44.915Z,9.718984
2022-11-25T05:11:44.905Z,9.719036
2022-11-25T05:12:44.883Z,9.719161
2022-11-25T05:13:44.933Z,9.719316
2022-11-25T05:14:44.863Z,9.719262
2022-11-25T05:15:44.843Z,9.719051
2022-11-25T05:16:44.853Z,9.719141
2022-11-25T05:17:44.865Z,9.719201
2022-11-25T05:18:44.826Z,9.719116
2022-11-25T05:19:44.866Z,9.718989
2022-11-25T05:20:44.837Z,9.719212
2022-11-25T05:21:45.792Z,9.719067
2022-11-25T05:22:44.801Z,9.719216
2022-11-25T05:23:44.801Z,9.719263
2022-11-25T05:24:44.777Z,9.719274
2022-11-25T05:25:44.790Z,9.719127
2022-11-25T05:26:44.740Z,9.719203
2022-11-25T05:27:45.744Z,9.719170
2022-11-25T05:28:44.749Z,9.719306
2022-11-25T05:29:44.731Z,9.719324
2022-11-25T05:30:44.751Z,9.719250
2022-11-25T05:31:44.766Z,9.719174
2022-11-25T05:32:44.723Z,9.719258
2022-11-25T05:33:44.694Z,9.719219
2022-11-25T05:34:44.704Z,9.719036
2022-11-25T05:35:44.692Z,9.719286
2022-11-25T05:36:44.695Z,9.719148
2022-11-25T05:37:44.650Z,9.719251
2022-11-25T05:38:44.614Z,9.719108
2022-11-25T05:39:44.608Z,9.719165
2022-11-25T05:40:44.620Z,9.719167
2022-11-25T05:41:44.597Z,9.719302
2022-11-25T05:42:44.625Z,9.719288
2022-11-25T05:43:44.571Z,9.719202
2022-11-25T05:44:44.570Z,9.719147
2022-11-25T05:45:44.622Z,9.719084
2022-11-25T05:46:44.558Z,9.719215
2022-11-25T05:47:44.578Z,9.719183
2022-11-25T05:48:44.544Z,9.719101
2022-11-25T05:49:44.520Z,9.719072
2022-11-25T05:50:44.502Z,9.719078
2022-11-25T05:51:44.511Z,9.719073
2022-11-25T05:52:44.509Z,9.719107
2022-11-25T05:53:44.538Z,9.719052
2022-11-25T05:54:44.484Z,9.719118
2022-11-25T05:55:44.492Z,9.719080
2022-11-25T05:56:44.445Z,9.719119
2022-11-25T05:57:44.483Z,9.719125
2022-11-25T05:58:44.505Z,9.718986
2022-11-25T05:59:44.435Z,9.719123
2022-11-25T06:00:44.420Z,9.719111
2022-11-25T06:01:44.422Z,9.719074
2022-11-25T06:02:44.559Z,9.719162
2022-11-25T06:03:44.438Z,9.719160
2022-11-25T06:04:44.399Z,9.719262
2022-11-25T06:05:44.377Z,9.719154
2022-11-25T06:06:44.368Z,9.719084
2022-11-25T06:07:44.423Z,9.719138
2022-11-25T06:08:44.339Z,9.719109
2022-11-25T06:09:44.393Z,9.719163
2022-11-25T06:10:44.313Z,9.719144
2022-11-25T06:11:44.336Z,9.719160
2022-11-25T06:12:44.312Z,9.719138
2022-11-25T06:13:44.310Z,9.719216
2022-11-25T06:14:44.361Z,9.719220
2022-11-25T06:15:44.346Z,9.719142
2022-11-25T06:16:44.323Z,9.719186
2022-11-25T06:17:44.266Z,9.719129
2022-11-25T06:18:44.256Z,9.719103
2022-11-25T06:19:44.260Z,9.719033
2022-11-25T06:20:44.261Z,9.719091
2022-11-25T06:21:44.242Z,9.719183
2022-11-25T06:22:44.237Z,9.719129
2022-11-25T06:23:44.196Z,9.719131
2022-11-25T06:24:46.523Z,9.719076
2022-11-25T06:25:45.240Z,9.719104
2022-11-25T06:26:44.144Z,9.719077
2022-11-25T06:28:11.439Z,9.719099
2022-11-25T06:28:46.156Z,9.719075
2022-11-25T06:29:44.158Z,9.719077
2022-11-25T06:30:44.216Z,9.719029
2022-11-25T06:31:44.229Z,9.719058
2022-11-25T06:32:44.127Z,9.719165
2022-11-25T06:33:45.105Z,9.719212
2022-11-25T06:34:44.085Z,9.719193
2022-11-25T06:35:44.079Z,9.718987
2022-11-25T06:36:44.047Z,9.719097
2022-11-25T06:37:44.097Z,9.719198
2022-11-25T06:38:44.045Z,9.718832
2022-11-25T06:39:44.057Z,9.719151
2022-11-25T06:40:44.048Z,9.718835
2022-11-25T06:41:44.013Z,9.719044
2022-11-25T06:42:44.003Z,9.719038
2022-11-25T06:43:44.003Z,9.718979
2022-11-25T06:44:44.015Z,9.719219
2022-11-25T06:45:43.974Z,9.719374
2022-11-25T06:46:44.051Z,9.719336
2022-11-25T06:47:43.951Z,9.719455
2022-11-25T06:48:43.964Z,9.719305
2022-11-25T06:49:43.999Z,9.719422
2022-11-25T06:50:43.921Z,9.719312
2022-11-25T06:51:43.932Z,9.719418
2022-11-25T06:52:43.905Z,9.719468
2022-11-25T06:53:43.933Z,9.719353
2022-11-25T06:54:43.911Z,9.719275
2022-11-25T06:55:43.899Z,9.719286
2022-11-25T06:56:43.864Z,9.719166
2022-11-25T06:57:44.889Z,9.719277
2022-11-25T06:58:43.861Z,9.719269
2022-11-25T06:59:43.844Z,9.719376
2022-11-25T07:00:43.853Z,9.719151
2022-11-25T07:01:43.846Z,9.719104
2022-11-25T07:02:48.174Z,9.718818
2022-11-25T07:03:44.805Z,9.718874
2022-11-25T07:04:43.785Z,9.719083
2022-11-25T07:05:43.808Z,9.719050
2022-11-25T07:06:43.836Z,9.719042
2022-11-25T07:07:43.824Z,9.718781
2022-11-25T07:08:44.727Z,9.719110
2022-11-25T07:09:43.756Z,9.719068
2022-11-25T07:10:43.728Z,9.718761
2022-11-25T07:11:43.775Z,9.719144
2022-11-25T07:12:43.765Z,9.719196
2022-11-25T07:13:43.694Z,9.719242
2022-11-25T07:14:43.698Z,9.719251
2022-11-25T07:15:43.794Z,9.719212
2022-11-25T07:16:44.064Z,9.719074
2022-11-25T07:17:44.679Z,9.719003
2022-11-25T07:18:43.632Z,9.719038
2022-11-25T07:19:43.633Z,9.718979
2022-11-25T07:20:43.651Z,9.719311
2022-11-25T07:21:43.635Z,9.719401
2022-11-25T07:22:43.644Z,9.719303
2022-11-25T07:23:43.591Z,9.719068
2022-11-25T07:24:43.623Z,9.719028
2022-11-25T07:25:43.592Z,9.719104
2022-11-25T07:26:43.604Z,9.719118
2022-11-25T07:27:43.565Z,9.719037
2022-11-25T07:28:43.727Z,9.719165
2022-11-25T07:30:03.123Z,9.719046
2022-11-25T07:31:45.533Z,9.719296
2022-11-25T07:32:43.521Z,9.719056
2022-11-25T07:33:43.608Z,9.719108
2022-11-25T07:34:43.506Z,9.719205
2022-11-25T07:35:43.537Z,9.719217
2022-11-25T07:36:43.489Z,9.719214
2022-11-25T07:37:43.471Z,9.719367
2022-11-25T07:38:46.547Z,9.719486
2022-11-25T07:39:44.504Z,9.719336
2022-11-25T07:40:43.446Z,9.719343
2022-11-25T07:41:44.488Z,9.719355
2022-11-25T07:42:43.496Z,9.719337
2022-11-25T07:43:43.409Z,9.719205
2022-11-25T07:44:43.419Z,9.719174
2022-11-25T07:45:43.387Z,9.719182
2022-11-25T07:46:43.408Z,9.719223
2022-11-25T07:47:43.393Z,9.719230
2022-11-25T07:48:43.344Z,9.719175
2022-11-25T07:49:43.332Z,9.719139
2022-11-25T07:50:43.381Z,9.719080
2022-11-25T07:51:43.376Z,9.719179
2022-11-25T07:52:43.329Z,9.719152
2022-11-25T07:53:43.321Z,9.719090
2022-11-25T07:54:43.341Z,9.719313
2022-11-25T07:55:43.286Z,9.719332
2022-11-25T07:56:43.288Z,9.719073
2022-11-25T07:57:43.278Z,9.719250
2022-11-25T07:58:46.094Z,9.719387
2022-11-25T07:59:44.255Z,9.719293
2022-11-25T08:00:43.238Z,9.719548
2022-11-25T08:01:43.317Z,9.719693
2022-11-25T08:02:43.282Z,9.719832
2022-11-25T08:03:43.254Z,9.719528
2022-11-25T08:04:43.202Z,9.719119
2022-11-25T08:05:43.191Z,9.718913
2022-11-25T08:06:43.192Z,9.719069
2022-11-25T08:07:43.200Z,9.719519
2022-11-25T08:08:43.174Z,9.719683
2022-11-25T08:09:43.138Z,9.719842
2022-11-25T08:10:43.149Z,9.719513
2022-11-25T08:11:43.196Z,9.719471
2022-11-25T08:12:43.136Z,9.719085
2022-11-25T08:13:43.125Z,9.719388
2022-11-25T08:14:43.094Z,9.719547
2022-11-25T08:15:43.156Z,9.719471
2022-11-25T08:16:43.135Z,9.719430
2022-11-25T08:17:43.076Z,9.719379
2022-11-25T08:18:43.078Z,9.719315
2022-11-25T08:19:43.116Z,9.719233
2022-11-25T08:20:43.074Z,9.719307
2022-11-25T08:21:43.076Z,9.719195
2022-11-25T08:22:43.042Z,9.719333
2022-11-25T08:23:43.042Z,9.718979
2022-11-25T08:24:43.024Z,9.719075
2022-11-25T08:25:47.443Z,9.719214
2022-11-25T08:26:45.001Z,9.719111
2022-11-25T08:27:42.951Z,9.718780
2022-11-25T08:28:42.967Z,9.718916
2022-11-25T08:29:43.012Z,9.719031
2022-11-25T08:30:42.939Z,9.718993
2022-11-25T08:31:43.067Z,9.718839
2022-11-25T08:32:42.917Z,9.718951
2022-11-25T08:33:42.896Z,9.718913
2022-11-25T08:34:42.982Z,9.718856
2022-11-25T08:35:42.888Z,9.719128
2022-11-25T08:36:47.931Z,9.719164
2022-11-25T08:37:44.870Z,9.719082
2022-11-25T08:38:42.880Z,9.718806
2022-11-25T08:39:58.461Z,9.718804
2022-11-25T08:40:44.875Z,9.718881
2022-11-25T08:41:42.861Z,9.718781
2022-11-25T08:42:42.827Z,9.718857
2022-11-25T08:43:42.828Z,9.718965
2022-11-25T08:44:42.810Z,9.719012
2022-11-25T08:45:42.846Z,9.718882
2022-11-25T08:46:42.883Z,9.718877
2022-11-25T08:47:42.762Z,9.718936
2022-11-25T08:48:42.755Z,9.719012
2022-11-25T08:49:43.014Z,9.718930
2022-11-25T08:50:42.721Z,9.718968
2022-11-25T08:51:42.763Z,9.718945
2022-11-25T08:52:42.723Z,9.719047
2022-11-25T08:53:42.752Z,9.719080
2022-11-25T08:54:42.727Z,9.719182
2022-11-25T08:55:42.706Z,9.719159
2022-11-25T08:56:42.687Z,9.719109
2022-11-25T08:57:42.675Z,9.719103
2022-11-25T08:58:42.698Z,9.719054
2022-11-25T08:59:42.619Z,9.719131
2022-11-25T09:00:42.604Z,9.719128
2022-11-25T09:01:42.673Z,9.719067
2022-11-25T09:02:42.697Z,9.719082
2022-11-25T09:03:42.587Z,9.719035
2022-11-25T09:04:42.603Z,9.719050
2022-11-25T09:05:42.580Z,9.719142
2022-11-25T09:06:42.557Z,9.719131
2022-11-25T09:07:42.631Z,9.719053
2022-11-25T09:08:42.529Z,9.719162
2022-11-25T09:09:42.546Z,9.719217
2022-11-25T09:10:42.529Z,9.719199
2022-11-25T09:11:42.589Z,9.719214
2022-11-25T09:12:42.494Z,9.719284
2022-11-25T09:13:42.553Z,9.719286
2022-11-25T09:15:14.389Z,9.719303
2022-11-25T09:15:42.492Z,9.719255
2022-11-25T09:16:42.596Z,9.719378
2022-11-25T09:17:42.452Z,9.719433
2022-11-25T09:18:42.428Z,9.719431
2022-11-25T09:19:42.421Z,9.719431
2022-11-25T09:20:42.400Z,9.719452
2022-11-25T09:21:42.419Z,9.719343
2022-11-25T09:22:42.415Z,9.719377
2022-11-25T09:23:42.377Z,9.719388
2022-11-25T09:24:42.354Z,9.719387
2022-11-25T09:25:42.358Z,9.719324
2022-11-25T09:26:42.347Z,9.719359
2022-11-25T09:27:42.353Z,9.719426
2022-11-25T09:28:42.323Z,9.719458
2022-11-25T09:29:42.309Z,9.719471
2022-11-25T09:30:42.313Z,9.719472
2022-11-25T09:31:42.340Z,9.719493
2022-11-25T09:32:42.285Z,9.719481
2022-11-25T09:33:42.290Z,9.719448
2022-11-25T09:34:42.269Z,9.719481
2022-11-25T09:35:42.251Z,9.719481
2022-11-25T09:36:42.257Z,9.719481
2022-11-25T09:37:42.251Z,9.719481
2022-11-25T09:38:43.453Z,9.719481
2022-11-25T09:39:43.225Z,9.719481
2022-11-25T09:40:42.197Z,9.719481
2022-11-25T09:41:42.239Z,9.719481
2022-11-25T09:42:42.193Z,9.719481
2022-11-25T09:43:42.167Z,9.718675
2022-11-25T09:44:42.815Z,9.718964
2022-11-25T09:45:43.150Z,9.719057
2022-11-25T09:46:42.189Z,9.718985
2022-11-25T09:47:46.840Z,9.718861
2022-11-25T09:48:43.136Z,9.718713
2022-11-25T09:49:42.106Z,9.718773
2022-11-25T09:50:42.105Z,9.718934
2022-11-25T09:51:42.093Z,9.718780
2022-11-25T09:52:42.100Z,9.718895
2022-11-25T09:53:42.104Z,9.718875
2022-11-25T09:54:42.096Z,9.718951
2022-11-25T09:55:42.049Z,9.719104
2022-11-25T09:56:42.120Z,9.719102
2022-11-25T09:57:42.030Z,9.719249
2022-11-25T09:58:42.011Z,9.719134
2022-11-25T09:59:42.023Z,9.719008
2022-11-25T10:00:42.041Z,9.719033
2022-11-25T10:01:42.040Z,9.718960
2022-11-25T10:02:42.104Z,9.718875
2022-11-25T10:03:42.055Z,9.718940
2022-11-25T10:04:41.990Z,9.719036
2022-11-25T10:05:41.955Z,9.719057
2022-11-25T10:06:42.035Z,9.719001
2022-11-25T10:07:41.979Z,9.719131
2022-11-25T10:08:41.915Z,9.719102
2022-11-25T10:09:41.923Z,9.719115
2022-11-25T10:10:41.909Z,9.718883
2022-11-25T10:11:41.887Z,9.718410
2022-11-25T10:12:41.906Z,9.718741
2022-11-25T10:13:41.894Z,9.718918
2022-11-25T10:14:41.876Z,9.719238
2022-11-25T10:15:41.928Z,9.719303
2022-11-25T10:16:43.964Z,9.719303
2022-11-25T10:17:41.839Z,9.719303
2022-11-25T10:18:41.845Z,9.719303
2022-11-25T10:19:41.817Z,9.719303
2022-11-25T10:20:41.813Z,9.718873
2022-11-25T10:21:41.790Z,9.718506
2022-11-25T10:22:41.788Z,9.719183
2022-11-25T10:23:41.803Z,9.719156
2022-11-25T10:24:41.771Z,9.719013
2022-11-25T10:25:41.771Z,9.719244
2022-11-25T10:26:41.742Z,9.719244
2022-11-25T10:27:41.738Z,9.719244
2022-11-25T10:28:41.721Z,9.718504
2022-11-25T10:29:41.755Z,9.718928
2022-11-25T10:30:41.702Z,9.718848
2022-11-25T10:31:41.741Z,9.718848
2022-11-25T10:32:41.672Z,9.718848
2022-11-25T10:33:41.677Z,9.718848
2022-11-25T10:34:41.683Z,9.719322
2022-11-25T10:35:41.661Z,9.718928
2022-11-25T10:36:41.640Z,9.718994
2022-11-25T10:37:41.640Z,9.719381
2022-11-25T10:38:41.627Z,9.718998
2022-11-25T10:39:41.663Z,9.718975
2022-11-25T10:40:41.610Z,9.719116
2022-11-25T10:41:41.589Z,9.719163
2022-11-25T10:42:41.606Z,9.719082
2022-11-25T10:43:41.598Z,9.718743
2022-11-25T10:44:41.584Z,9.719130
2022-11-25T10:45:41.552Z,9.719083
2022-11-25T10:47:11.697Z,9.719131
2022-11-25T10:47:43.633Z,9.719294
2022-11-25T10:48:44.309Z,9.718952
2022-11-25T10:49:42.513Z,9.718855
2022-11-25T10:50:41.503Z,9.719046
2022-11-25T10:51:41.498Z,9.719192
2022-11-25T10:52:41.498Z,9.719213
2022-11-25T10:53:41.489Z,9.719357
2022-11-25T10:54:41.722Z,9.719159
2022-11-25T10:55:41.467Z,9.719395
2022-11-25T10:56:41.496Z,9.719086
2022-11-25T10:57:41.435Z,9.719349
2022-11-25T10:58:41.432Z,9.719293
2022-11-25T10:59:41.424Z,9.719197
2022-11-25T11:00:41.430Z,9.719073
2022-11-25T11:01:41.418Z,9.719166
2022-11-25T11:02:41.444Z,9.719348
2022-11-25T11:03:41.396Z,9.718962
2022-11-25T11:04:41.389Z,9.719209
2022-11-25T11:05:46.386Z,9.719409
2022-11-25T11:06:43.347Z,9.719196
2022-11-25T11:07:41.388Z,9.719282
2022-11-25T11:08:41.360Z,9.719193
2022-11-25T11:09:41.311Z,9.719085
2022-11-25T11:10:41.300Z,9.719171
2022-11-25T11:11:41.301Z,9.719245
2022-11-25T11:12:41.280Z,9.719310
2022-11-25T11:13:41.299Z,9.719217
2022-11-25T11:14:41.282Z,9.719240
2022-11-25T11:15:41.444Z,9.719230
2022-11-25T11:16:41.312Z,9.719268
2022-11-25T11:17:41.240Z,9.719296
2022-11-25T11:18:41.216Z,9.719201
2022-11-25T11:19:41.217Z,9.719245
2022-11-25T11:20:41.203Z,9.719252
2022-11-25T11:21:41.252Z,9.719196
2022-11-25T11:22:41.192Z,9.719179
2022-11-25T11:23:41.177Z,9.719198
2022-11-25T11:24:41.159Z,9.719310
2022-11-25T11:25:41.179Z,9.719310
2022-11-25T11:26:41.138Z,9.719310
2022-11-25T11:27:41.122Z,9.719310
2022-11-25T11:28:41.132Z,9.719310
2022-11-25T11:29:41.108Z,9.719310
2022-11-25T11:30:41.113Z,9.719156
2022-11-25T11:31:41.153Z,9.719351
2022-11-25T11:32:41.075Z,9.719386
2022-11-25T11:33:41.088Z,9.719351
2022-11-25T11:34:42.066Z,9.719361
2022-11-25T11:35:42.108Z,9.719462
2022-11-25T11:36:41.034Z,9.719382
2022-11-25T11:37:41.032Z,9.719321
2022-11-25T11:38:41.027Z,9.719270
2022-11-25T11:39:43.104Z,9.719331
2022-11-25T11:40:41.002Z,9.719396
2022-11-25T11:41:40.991Z,9.719319
2022-11-25T11:42:40.976Z,9.719331
2022-11-25T11:43:40.995Z,9.719279
2022-11-25T11:44:40.961Z,9.719228
2022-11-25T11:45:40.951Z,9.719238